Aydlett, NC

5:00 PM EDT on August 21, 2014 (GMT -0400)
OBX-Jack's Place | Change Station
CLOSE
Current Station
Personal Weather Station
Location: Grandy, NC
Elevation: 35 ft
Nearby Weather Stations

Elev 35 ft 36.24 °N, 75.86 °W | Updated 12 minutes ago

Clear
Clear
89.4 °F
Feels Like 98 °F
N
3.2
Wind Variable Wind from SSE

Today
High -- | Low -- °F
--% Chance of Precip.
Yesterday
High -- | Low -- °F
Precip. -- in
6:26 AM 7:46 PM
Waning Crescent, 12% visible
Pressure 30.01 in
Visibility 10.0 miles
Clouds Clear
Heat Index 98 °F
Dew Point 73 °F
Humidity 59%
Rainfall 0.70 in
Snow Depth Not available.
UV 5 out of 12
Pollen 8.60 out of 12
Air Quality Not available.
Flu Activity Not available.
METAR KONX 212035Z AUTO 09004KT 10SM CLR 32/22 A3001 RMK AO2 T03170220

More Conditions Fewer Conditions

Pressure 30.01 in
Visibility 10.0 miles
Clouds Clear
Heat Index 98 °F
Dew Point 73 °F
Humidity 59%
Rainfall 0.70 in
Snow Depth Not available.
UV 5 out of 12
Pollen 8.60 out of 12
Air Quality Not available.
Flu Activity Not available.
METAR KONX 212035Z AUTO 09004KT 10SM CLR 32/22 A3001 RMK AO2 T03170220

More Conditions Fewer Conditions

10-Day Weather Forecast

Almanac

Astronomy

Aug. 21, 2014 Rise Set
Actual Time 6:26 AM EDT 7:46 PM EDT
Civil Twilight 5:59 AM EDT 8:13 PM EDT
Nautical Twilight 5:27 AM EDT 8:45 PM EDT
Astronomical Twilight 4:53 AM EDT 9:19 PM EDT
Moon 2:57 AM EDT 5:11 PM EDT
Length of Visible Light 14h 13m
Length of Day
13h 20m
Tomorrow will be 2m 6s shorter.
Waning Crescent, 12% of the Moon is Illuminated
Today
Waning Crescent
Aug 25
New
Sep 2
First Quarter
Sep 8
Full
Sep 15
Last Quarter

Today's Extremes

State Highs State Lows

Community

WunderPhotos

Upload Photos

1,746,019 photos uploaded!

WunderBlogs® & News

Nearby

Snow Depth

Station Depth Elevation
No new snow has been reported.

Earthquake Activity

City Distance Mag. Time & Date
No recent earthquake activity has been reported nearby.
Minimum magnitude displayed is 2.5.

Coastal Water Temperatures

Place Temperature
Duck Pier, NC 78.1 °F
Oregon Inlet Marina, NC 82.9 °F
Money Point, VA 84.9 °F
Sewells Point, VA 81.0 °F
Chesapeake Bay Bridge Tunnel, VA 79.0 °F

Nearby Weather Stations